createdAt,value
2017-06-16T00:00:02.887Z,19.43
2017-06-16T00:02:29.233Z,19.67
2017-06-16T00:04:55.698Z,19.52
2017-06-16T00:07:22.024Z,19.27
2017-06-16T00:09:48.375Z,19.66
2017-06-16T00:12:14.690Z,19.94
2017-06-16T00:14:41.028Z,19.73
2017-06-16T00:17:07.359Z,19.29
2017-06-16T00:19:33.816Z,19.40
2017-06-16T00:22:00.139Z,19.83
2017-06-16T00:24:26.487Z,19.15
2017-06-16T00:26:52.847Z,19.99
2017-06-16T00:29:19.191Z,18.96
2017-06-16T00:31:45.516Z,19.41
2017-06-16T00:34:11.857Z,19.46
2017-06-16T00:36:38.166Z,19.84
2017-06-16T00:39:04.506Z,19.62
2017-06-16T00:41:33.234Z,19.79
2017-06-16T00:44:04.282Z,19.40
2017-06-16T00:46:34.382Z,19.16
2017-06-16T00:49:04.210Z,19.26
2017-06-16T00:51:33.085Z,19.03
2017-06-16T00:54:02.917Z,18.92
2017-06-16T00:56:34.246Z,19.76
2017-06-16T00:59:04.205Z,18.72
2017-06-16T01:01:30.695Z,19.30
2017-06-16T01:03:57.043Z,19.82
2017-06-16T01:06:23.356Z,19.76
2017-06-16T01:08:49.685Z,19.41
2017-06-16T01:11:16.017Z,19.40
2017-06-16T01:13:42.358Z,19.22
2017-06-16T01:16:08.665Z,19.48
2017-06-16T01:18:34.983Z,19.62
2017-06-16T01:21:01.305Z,19.16
2017-06-16T01:23:27.606Z,19.28
2017-06-16T01:25:53.933Z,18.93
2017-06-16T01:28:20.258Z,19.50
2017-06-16T01:30:46.633Z,18.89
2017-06-16T01:33:12.997Z,19.15
2017-06-16T01:35:39.326Z,18.94
2017-06-16T01:38:05.683Z,19.20
2017-06-16T01:40:32.047Z,19.12
2017-06-16T01:42:58.431Z,19.44
2017-06-16T01:45:24.874Z,19.40
2017-06-16T01:47:51.236Z,19.25
2017-06-16T01:50:17.573Z,18.74
2017-06-16T01:52:43.922Z,19.39
2017-06-16T01:55:10.226Z,18.74
2017-06-16T01:57:36.558Z,19.02
2017-06-16T02:00:02.944Z,18.39
2017-06-16T02:02:29.310Z,18.60
2017-06-16T02:04:55.656Z,18.56
2017-06-16T02:07:21.969Z,18.45
2017-06-16T02:09:48.293Z,18.35
2017-06-16T02:12:14.655Z,19.30
2017-06-16T02:14:40.976Z,19.24
2017-06-16T02:17:07.304Z,19.08
2017-06-16T02:19:33.740Z,18.78
2017-06-16T02:22:00.064Z,18.38
2017-06-16T02:24:26.897Z,19.40
2017-06-16T02:26:53.226Z,19.02
2017-06-16T02:29:19.768Z,18.84
2017-06-16T02:31:46.231Z,18.65
2017-06-16T02:34:12.541Z,19.11
2017-06-16T02:36:38.870Z,18.86
2017-06-16T02:39:05.202Z,18.95
2017-06-16T02:41:31.608Z,18.93
2017-06-16T02:43:57.950Z,18.91
2017-06-16T02:46:25.117Z,18.49
2017-06-16T02:48:51.441Z,18.64
2017-06-16T02:51:17.769Z,18.46
2017-06-16T02:53:44.068Z,18.83
2017-06-16T02:56:10.440Z,19.10
2017-06-16T02:58:36.790Z,18.69
2017-06-16T03:01:03.092Z,18.74
2017-06-16T03:03:29.415Z,18.67
2017-06-16T03:05:55.707Z,19.11
2017-06-16T03:08:22.068Z,18.85
2017-06-16T03:10:48.415Z,19.06
2017-06-16T03:15:41.479Z,18.09
2017-06-16T03:18:07.808Z,18.40
2017-06-16T03:20:34.180Z,18.51
2017-06-16T03:23:01.282Z,18.11
2017-06-16T03:25:27.592Z,18.26
2017-06-16T03:27:53.897Z,18.43
2017-06-16T03:30:20.231Z,18.63
2017-06-16T03:32:46.543Z,18.61
2017-06-16T03:35:12.876Z,18.31
2017-06-16T03:37:39.199Z,18.53
2017-06-16T03:40:05.549Z,18.33
2017-06-16T03:42:31.928Z,18.87
2017-06-16T03:44:58.234Z,18.51
2017-06-16T03:47:24.528Z,18.65
2017-06-16T03:49:50.860Z,18.58
2017-06-16T03:52:17.180Z,18.67
2017-06-16T03:54:43.500Z,18.32
2017-06-16T03:57:09.810Z,18.36
2017-06-16T03:59:36.114Z,18.00
2017-06-16T04:02:02.425Z,18.43
2017-06-16T04:04:28.914Z,18.21
2017-06-16T04:06:55.238Z,17.86
2017-06-16T04:09:21.549Z,18.39
2017-06-16T04:11:47.885Z,18.25
2017-06-16T04:14:14.283Z,18.38
2017-06-16T04:16:40.623Z,18.87
2017-06-16T04:19:06.930Z,18.25
2017-06-16T04:21:33.257Z,18.06
2017-06-16T04:24:00.111Z,18.73
2017-06-16T04:26:26.449Z,18.55
2017-06-16T04:28:52.759Z,18.23
2017-06-16T04:31:19.091Z,18.94
2017-06-16T04:33:45.454Z,18.36
2017-06-16T04:36:11.774Z,18.25
2017-06-16T04:38:38.112Z,17.80
2017-06-16T04:41:04.440Z,18.68
2017-06-16T04:43:30.794Z,18.60
2017-06-16T04:45:57.103Z,18.57
2017-06-16T04:48:23.431Z,17.97
2017-06-16T04:50:49.768Z,18.59
2017-06-16T04:53:16.126Z,18.00
2017-06-16T04:55:42.438Z,18.35
2017-06-16T04:58:08.757Z,17.72
2017-06-16T05:00:35.070Z,18.05
2017-06-16T05:03:01.414Z,17.67
2017-06-16T05:05:27.765Z,18.09
2017-06-16T05:07:54.088Z,18.37
2017-06-16T05:10:20.406Z,17.93
2017-06-16T05:12:46.766Z,18.52
2017-06-16T05:15:13.643Z,18.12
2017-06-16T05:17:39.970Z,18.49
2017-06-16T05:20:06.275Z,18.02
2017-06-16T05:22:38.607Z,18.76
2017-06-16T05:25:04.931Z,17.97
2017-06-16T05:27:31.473Z,18.44
2017-06-16T05:29:57.818Z,18.05
2017-06-16T05:32:24.147Z,18.00
2017-06-16T05:34:50.504Z,18.16
2017-06-16T05:37:16.917Z,18.56
2017-06-16T05:39:43.218Z,18.10
2017-06-16T05:42:09.526Z,17.87
2017-06-16T05:44:35.821Z,18.12
2017-06-16T05:47:02.165Z,18.60
2017-06-16T05:49:28.504Z,18.66
2017-06-16T05:51:54.831Z,18.63
2017-06-16T05:54:21.161Z,18.67
2017-06-16T05:56:47.514Z,18.89
2017-06-16T05:59:13.847Z,18.65
2017-06-16T06:01:40.193Z,18.89
2017-06-16T06:04:06.521Z,18.97
2017-06-16T06:06:32.854Z,18.91
2017-06-16T06:08:59.176Z,19.18
2017-06-16T06:11:25.473Z,18.69
2017-06-16T06:13:51.789Z,18.94
2017-06-16T06:16:18.123Z,18.79
2017-06-16T06:18:44.455Z,18.67
2017-06-16T06:21:10.818Z,19.21
2017-06-16T06:23:37.138Z,19.53
2017-06-16T06:26:03.435Z,18.44
2017-06-16T06:28:29.797Z,19.18
2017-06-16T06:30:56.114Z,19.14
2017-06-16T06:33:22.424Z,18.89
2017-06-16T06:35:48.819Z,19.11
2017-06-16T06:38:15.108Z,19.06
2017-06-16T06:40:41.502Z,18.81
2017-06-16T06:43:07.813Z,19.04
2017-06-16T06:45:34.158Z,19.14
2017-06-16T06:48:00.466Z,19.20
2017-06-16T06:50:27.454Z,19.30
2017-06-16T06:52:54.622Z,19.32
2017-06-16T06:55:21.464Z,19.65
2017-06-16T06:57:48.667Z,19.78
2017-06-16T07:00:15.005Z,19.25
2017-06-16T07:02:41.341Z,19.30
2017-06-16T07:05:07.646Z,19.64
2017-06-16T07:07:33.957Z,19.79
2017-06-16T07:10:00.286Z,20.04
2017-06-16T07:12:26.612Z,19.74
2017-06-16T07:14:52.929Z,19.94
2017-06-16T07:17:19.237Z,19.77
2017-06-16T07:19:45.547Z,19.43
2017-06-16T07:22:11.852Z,19.00
2017-06-16T07:24:38.173Z,19.31
2017-06-16T07:27:04.491Z,19.41
2017-06-16T07:29:30.841Z,19.91
2017-06-16T07:31:57.168Z,19.80
2017-06-16T07:34:23.481Z,19.71
2017-06-16T07:36:49.809Z,19.72
2017-06-16T07:39:16.114Z,19.17
2017-06-16T07:41:42.451Z,19.41
2017-06-16T07:44:08.805Z,19.47
2017-06-16T07:46:35.127Z,19.29
2017-06-16T07:49:01.447Z,19.56
2017-06-16T07:51:27.773Z,19.35
2017-06-16T07:53:54.126Z,19.80
2017-06-16T07:56:20.444Z,19.71
2017-06-16T07:58:46.746Z,19.20
2017-06-16T08:01:13.064Z,19.64
2017-06-16T08:03:39.361Z,19.74
2017-06-16T08:06:05.747Z,19.24
2017-06-16T08:08:32.085Z,19.49
2017-06-16T08:10:58.412Z,19.46
2017-06-16T08:13:24.749Z,20.12
2017-06-16T08:15:51.064Z,19.68
2017-06-16T08:18:17.395Z,19.80
2017-06-16T08:21:04.453Z,20.14
2017-06-16T08:23:30.762Z,20.30
2017-06-16T08:25:57.110Z,20.30
2017-06-16T08:28:23.394Z,20.34
2017-06-16T08:30:49.771Z,19.78
2017-06-16T08:33:16.092Z,20.22
2017-06-16T08:35:42.417Z,20.27
2017-06-16T08:38:08.741Z,19.75
2017-06-16T08:40:35.092Z,20.51
2017-06-16T08:43:01.428Z,19.82
2017-06-16T08:45:27.764Z,19.81
2017-06-16T08:47:54.072Z,20.22
2017-06-16T08:50:20.424Z,20.10
2017-06-16T08:52:46.739Z,19.98
2017-06-16T08:55:13.111Z,20.19
2017-06-16T08:57:39.385Z,20.04
2017-06-16T09:00:05.694Z,20.28
2017-06-16T09:02:32.012Z,20.89
2017-06-16T09:04:58.361Z,21.02
2017-06-16T09:07:24.650Z,20.61
2017-06-16T09:09:50.982Z,21.29
2017-06-16T09:12:17.319Z,21.09
2017-06-16T09:14:43.704Z,21.41
2017-06-16T09:17:10.006Z,21.05
2017-06-16T09:19:36.335Z,21.18
2017-06-16T09:22:02.638Z,21.34
2017-06-16T09:24:28.984Z,20.87
2017-06-16T09:26:55.296Z,21.17
2017-06-16T09:29:21.622Z,21.39
2017-06-16T09:31:47.921Z,21.89
2017-06-16T09:34:14.299Z,22.08
2017-06-16T09:36:40.610Z,21.59
2017-06-16T09:39:06.957Z,21.25
2017-06-16T09:41:33.292Z,21.30
2017-06-16T09:43:59.626Z,21.36
2017-06-16T09:46:25.989Z,21.62
2017-06-16T09:48:52.325Z,20.81
2017-06-16T09:51:18.649Z,21.41
2017-06-16T09:53:45.024Z,20.81
2017-06-16T09:56:11.344Z,21.16
2017-06-16T09:58:37.655Z,20.73
2017-06-16T10:01:03.976Z,21.16
2017-06-16T10:03:30.359Z,21.12
2017-06-16T10:05:56.686Z,21.51
2017-06-16T10:08:22.989Z,21.60
2017-06-16T10:10:49.307Z,21.17
2017-06-16T10:13:15.627Z,21.63
2017-06-16T10:15:41.945Z,21.47
2017-06-16T10:18:08.276Z,21.12
2017-06-16T10:20:34.629Z,21.30
2017-06-16T10:23:00.963Z,21.30
2017-06-16T10:25:27.287Z,20.98
2017-06-16T10:27:53.835Z,20.83
2017-06-16T10:30:20.157Z,21.21
2017-06-16T10:32:46.505Z,20.78
2017-06-16T10:35:12.825Z,21.24
2017-06-16T10:37:39.165Z,21.00
2017-06-16T10:40:05.580Z,20.76
2017-06-16T10:42:31.906Z,21.15
2017-06-16T10:44:58.218Z,21.38
2017-06-16T10:47:24.552Z,21.17
2017-06-16T10:49:50.922Z,21.18
2017-06-16T10:52:17.224Z,21.15
2017-06-16T10:54:43.547Z,20.94
2017-06-16T10:57:09.882Z,20.87
2017-06-16T10:59:36.286Z,21.47
2017-06-16T11:02:02.632Z,21.42
2017-06-16T11:04:28.938Z,21.32
2017-06-16T11:06:55.520Z,21.28
2017-06-16T11:09:21.834Z,21.17
2017-06-16T11:11:48.163Z,20.83
2017-06-16T11:14:14.490Z,20.81
2017-06-16T11:16:40.798Z,20.98
2017-06-16T11:19:07.133Z,21.07
2017-06-16T11:21:33.461Z,21.00
2017-06-16T11:23:59.797Z,20.90
2017-06-16T11:26:26.124Z,20.70
2017-06-16T11:28:52.478Z,20.62
2017-06-16T11:31:19.594Z,20.72
2017-06-16T11:33:45.890Z,21.04
2017-06-16T11:36:12.221Z,21.15
2017-06-16T11:38:38.521Z,21.23
2017-06-16T11:41:04.861Z,21.83
2017-06-16T11:43:31.193Z,21.36
2017-06-16T11:45:57.517Z,21.42
2017-06-16T11:48:23.867Z,21.78
2017-06-16T11:50:50.246Z,22.35
2017-06-16T11:53:16.669Z,21.97
2017-06-16T11:55:43.050Z,22.25
2017-06-16T11:58:09.376Z,21.79
2017-06-16T12:00:35.750Z,22.00
2017-06-16T12:03:02.061Z,21.74
2017-06-16T12:05:28.389Z,21.41
2017-06-16T12:07:54.731Z,21.32
2017-06-16T12:10:21.056Z,22.17
2017-06-16T12:12:47.395Z,21.90
2017-06-16T12:15:13.718Z,22.52
2017-06-16T12:17:40.058Z,22.24
2017-06-16T12:20:06.390Z,21.73
2017-06-16T12:22:32.718Z,22.11
2017-06-16T12:24:59.053Z,22.38
2017-06-16T12:27:25.378Z,22.05
2017-06-16T12:29:51.738Z,22.45
2017-06-16T12:32:18.086Z,21.98
2017-06-16T12:34:44.404Z,22.18
2017-06-16T12:37:10.732Z,22.36
2017-06-16T12:39:37.047Z,22.13
2017-06-16T12:42:03.363Z,22.15
2017-06-16T12:44:29.657Z,22.49
2017-06-16T12:46:55.972Z,22.00
2017-06-16T12:49:22.302Z,22.12
2017-06-16T12:51:48.694Z,22.01
2017-06-16T12:54:15.013Z,22.08
2017-06-16T12:56:41.336Z,22.82
2017-06-16T12:59:07.635Z,22.49
2017-06-16T13:01:33.982Z,21.94
2017-06-16T13:04:00.333Z,21.87
2017-06-16T13:06:26.677Z,21.45
2017-06-16T13:08:53.013Z,21.49
2017-06-16T13:11:19.409Z,21.73
2017-06-16T13:13:45.742Z,21.47
2017-06-16T13:16:12.046Z,21.35
2017-06-16T13:18:38.360Z,20.95
2017-06-16T13:21:04.705Z,21.33
2017-06-16T13:23:31.040Z,21.13
2017-06-16T13:25:57.373Z,21.75
2017-06-16T13:28:23.677Z,22.33
2017-06-16T13:30:50.042Z,23.10
2017-06-16T13:33:16.351Z,23.21
2017-06-16T13:35:42.690Z,23.04
2017-06-16T13:38:09.017Z,22.15
2017-06-16T13:40:35.413Z,21.99
2017-06-16T13:43:01.748Z,21.79
2017-06-16T13:45:28.083Z,21.69
2017-06-16T13:47:54.417Z,21.48
2017-06-16T13:50:20.767Z,21.69
2017-06-16T13:52:47.089Z,21.54
2017-06-16T13:55:13.398Z,21.67
2017-06-16T13:57:39.760Z,20.90
2017-06-16T14:00:06.107Z,21.47
2017-06-16T14:02:32.445Z,21.21
2017-06-16T14:04:58.804Z,21.16
2017-06-16T14:07:25.120Z,21.34
2017-06-16T14:09:51.476Z,21.36
2017-06-16T14:12:17.776Z,21.17
2017-06-16T14:14:44.077Z,21.37
2017-06-16T14:17:10.384Z,20.84
2017-06-16T14:19:36.755Z,20.88
2017-06-16T14:22:03.066Z,21.00
2017-06-16T14:24:29.383Z,21.13
2017-06-16T14:26:55.691Z,21.62
2017-06-16T14:29:22.023Z,21.67
2017-06-16T14:31:48.360Z,21.63
2017-06-16T14:34:14.725Z,21.52
2017-06-16T14:36:41.093Z,21.78
2017-06-16T14:39:07.441Z,21.57
2017-06-16T14:41:33.768Z,21.33
2017-06-16T14:44:00.073Z,21.16
2017-06-16T14:46:26.391Z,21.44
2017-06-16T14:48:52.739Z,21.14
2017-06-16T14:51:19.084Z,21.21
2017-06-16T14:53:45.462Z,20.95
2017-06-16T14:56:11.781Z,20.82
2017-06-16T14:58:38.633Z,20.77
2017-06-16T15:01:05.008Z,21.15
2017-06-16T15:03:31.863Z,20.84
2017-06-16T15:06:01.063Z,20.61
2017-06-16T15:08:27.436Z,20.71
2017-06-16T15:10:53.788Z,20.84
2017-06-16T15:13:20.110Z,21.18
2017-06-16T15:15:46.712Z,21.54
2017-06-16T15:18:13.185Z,21.50
2017-06-16T15:20:39.580Z,21.22
2017-06-16T15:23:06.402Z,21.06
2017-06-16T15:25:33.180Z,20.98
2017-06-16T15:27:59.519Z,20.84
2017-06-16T15:30:25.836Z,20.63
2017-06-16T15:32:52.173Z,21.40
2017-06-16T15:35:18.544Z,20.64
2017-06-16T15:37:44.846Z,20.09
2017-06-16T15:40:11.188Z,20.65
2017-06-16T15:42:37.506Z,20.53
2017-06-16T15:45:03.818Z,20.86
2017-06-16T15:47:30.565Z,20.44
2017-06-16T15:49:56.989Z,20.52
2017-06-16T15:52:23.935Z,21.00
2017-06-16T15:54:50.878Z,20.74
2017-06-16T15:57:17.236Z,21.20
2017-06-16T15:59:43.593Z,21.03
2017-06-16T16:02:09.935Z,20.93
2017-06-16T16:04:36.303Z,21.22
2017-06-16T16:07:02.671Z,21.01
2017-06-16T16:09:29.036Z,21.26
2017-06-16T16:11:55.388Z,20.63
2017-06-16T16:14:21.718Z,20.64
2017-06-16T16:16:48.054Z,20.83
2017-06-16T16:19:14.361Z,21.12
2017-06-16T16:21:40.719Z,21.03
2017-06-16T16:24:07.622Z,21.16
2017-06-16T16:26:33.939Z,21.29
2017-06-16T16:29:00.555Z,21.18
2017-06-16T16:31:26.933Z,21.70
2017-06-16T16:33:53.333Z,21.55
2017-06-16T16:36:20.079Z,21.55
2017-06-16T16:38:46.587Z,20.80
2017-06-16T16:41:12.900Z,20.80
2017-06-16T16:43:39.249Z,20.79
2017-06-16T16:46:05.570Z,20.91
2017-06-16T16:48:33.747Z,20.89
2017-06-16T16:51:11.437Z,20.62
2017-06-16T16:53:43.866Z,20.70
2017-06-16T16:56:10.229Z,20.62
2017-06-16T16:58:37.968Z,20.99
2017-06-16T17:01:04.362Z,20.40
2017-06-16T17:03:30.768Z,20.73
2017-06-16T17:05:57.112Z,20.47
2017-06-16T17:08:25.344Z,20.07
2017-06-16T17:10:51.820Z,20.69
2017-06-16T17:13:24.950Z,20.15
2017-06-16T17:15:51.466Z,20.58
2017-06-16T17:18:17.824Z,21.03
2017-06-16T17:20:44.174Z,20.18
2017-06-16T17:23:10.490Z,20.64
2017-06-16T17:25:36.838Z,20.67
2017-06-16T17:28:03.170Z,20.57
2017-06-16T17:30:29.524Z,20.35
2017-06-16T17:32:55.879Z,20.05
2017-06-16T17:35:22.328Z,19.81
2017-06-16T17:37:48.645Z,19.98
2017-06-16T17:40:16.440Z,19.85
2017-06-16T17:42:43.409Z,19.87
2017-06-16T17:45:09.856Z,19.73
2017-06-16T17:47:36.291Z,20.03
2017-06-16T17:50:02.831Z,19.44
2017-06-16T17:52:29.530Z,19.52
2017-06-16T17:54:55.941Z,19.22
2017-06-16T17:57:22.444Z,19.81
2017-06-16T17:59:49.983Z,19.47
2017-06-16T18:02:19.351Z,19.30
2017-06-16T18:04:45.693Z,19.59
2017-06-16T18:07:12.041Z,20.16
2017-06-16T18:09:38.472Z,20.26
2017-06-16T18:12:04.820Z,19.51
2017-06-16T18:14:31.166Z,19.53
2017-06-16T18:16:57.922Z,19.57
2017-06-16T18:19:24.264Z,20.04
2017-06-16T18:21:50.594Z,19.53
2017-06-16T18:24:16.977Z,19.56
2017-06-16T18:26:43.801Z,19.37
2017-06-16T18:29:11.377Z,19.76
2017-06-16T18:31:37.805Z,19.90
2017-06-16T18:34:04.149Z,19.16
2017-06-16T18:36:30.476Z,19.25
2017-06-16T18:38:57.084Z,18.90
2017-06-16T18:41:23.673Z,19.20
2017-06-16T18:43:50.001Z,19.31
2017-06-16T18:46:16.381Z,18.99
2017-06-16T18:48:43.291Z,19.20
2017-06-16T18:51:22.628Z,18.88
2017-06-16T18:53:55.920Z,19.37
2017-06-16T18:56:27.121Z,18.92
2017-06-16T18:59:07.655Z,19.23
2017-06-16T19:01:33.998Z,19.02
2017-06-16T19:04:00.386Z,19.49
2017-06-16T19:06:26.775Z,19.33
2017-06-16T19:08:53.150Z,19.13
2017-06-16T19:11:19.571Z,19.12
2017-06-16T19:13:45.922Z,19.30
2017-06-16T19:16:12.287Z,19.11
2017-06-16T19:18:38.634Z,18.62
2017-06-16T19:21:05.009Z,18.76
2017-06-16T19:23:31.350Z,18.99
2017-06-16T19:25:57.698Z,18.57
2017-06-16T19:28:24.078Z,19.06
2017-06-16T19:30:50.451Z,18.66
2017-06-16T19:33:17.341Z,18.66
2017-06-16T19:35:43.699Z,18.76
2017-06-16T19:38:10.023Z,18.90
2017-06-16T19:40:36.485Z,18.42
2017-06-16T19:43:02.810Z,18.41
2017-06-16T19:45:29.184Z,18.14
2017-06-16T19:47:55.533Z,18.67
2017-06-16T19:50:21.857Z,17.99
2017-06-16T19:52:48.283Z,18.36
2017-06-16T19:55:14.633Z,18.32
2017-06-16T19:57:41.270Z,18.73
2017-06-16T20:00:07.667Z,18.33
2017-06-16T20:02:34.041Z,18.85
2017-06-16T20:05:00.438Z,18.41
2017-06-16T20:07:26.875Z,18.24
2017-06-16T20:09:53.628Z,18.62
2017-06-16T20:12:20.122Z,18.29
2017-06-16T20:14:46.618Z,18.11
2017-06-16T20:17:12.959Z,18.25
2017-06-16T20:19:39.332Z,18.01
2017-06-16T20:22:05.678Z,18.40
2017-06-16T20:24:34.790Z,18.62
2017-06-16T20:27:01.172Z,17.89
2017-06-16T20:29:27.552Z,18.32
2017-06-16T20:31:53.961Z,18.95
2017-06-16T20:34:20.304Z,17.69
2017-06-16T20:36:46.803Z,18.04
2017-06-16T20:39:13.302Z,18.16
2017-06-16T20:41:39.810Z,17.95
2017-06-16T20:44:06.186Z,17.70
2017-06-16T20:46:32.662Z,17.52
2017-06-16T20:48:59.049Z,17.28
2017-06-16T20:51:25.758Z,17.57
2017-06-16T20:56:44.950Z,17.04
2017-06-16T20:59:11.335Z,18.02
2017-06-16T21:01:37.786Z,17.19
2017-06-16T21:04:04.139Z,17.31
2017-06-16T21:42:07.833Z,17.03
2017-06-16T21:44:34.366Z,16.94
2017-06-16T21:47:01.132Z,17.50
2017-06-16T21:49:45.483Z,16.96
2017-06-16T22:00:54.354Z,16.42
2017-06-16T22:03:20.742Z,16.46
2017-06-16T22:05:47.172Z,15.72
2017-06-16T22:08:13.531Z,16.46
2017-06-16T22:10:39.875Z,17.11
2017-06-16T22:13:06.443Z,16.97
2017-06-16T22:18:11.768Z,16.62
2017-06-16T22:20:38.942Z,16.92
2017-06-16T22:28:59.671Z,15.42
2017-06-16T22:31:31.361Z,15.90
2017-06-16T22:34:02.521Z,16.40
2017-06-16T22:36:29.070Z,15.63
2017-06-16T22:39:10.125Z,15.77
2017-06-16T22:41:37.139Z,15.75
2017-06-16T22:44:03.558Z,15.50
2017-06-16T22:46:30.577Z,15.17
2017-06-16T22:48:57.281Z,15.43
2017-06-16T22:51:24.082Z,15.60
2017-06-16T22:53:50.495Z,17.04
2017-06-16T22:56:17.622Z,16.55
2017-06-16T23:24:44.667Z,14.75
2017-06-16T23:27:11.039Z,14.94
2017-06-16T23:29:48.959Z,15.86
2017-06-16T23:32:15.549Z,14.77
2017-06-16T23:34:41.919Z,15.42
2017-06-16T23:37:25.081Z,14.77
2017-06-16T23:40:07.871Z,14.28
2017-06-16T23:42:48.110Z,14.74
2017-06-16T23:45:26.198Z,15.10
2017-06-16T23:48:03.843Z,15.09
2017-06-16T23:50:32.069Z,15.14
2017-06-16T23:53:12.094Z,14.68
2017-06-16T23:55:51.265Z,14.50
2017-06-16T23:58:17.695Z,15.00
